Aviation Digital Data Service (ADDS)

Output produced by METARs form (2036 UTC 17 June 2019)
found at http://www.aviationweather.gov/metar/data/
 
Forecast for: LOWS (SALZBURG AIRPORT, AT)
Text: TAF LOWS 171715Z 1718/1818 15005KT CAVOK TX28/1815Z TN14/1803Z
Forecast period: 1800 UTC 17 June 2019 to 0700 UTC 18 June 2019
Forecast type: FROM: standard forecast or significant change
Winds: from the SSE (150 degrees) at 6 MPH (5 knots; 2.6 m/s)
Visibility: 6 or more miles 10+ km)
Ceiling: unknown
Clouds: missing
Weather: no significant weather forecast for this period
Text: TEMPO 1718/1719 05008KT
Forecast period: 1800 to 1900 UTC 17 June 2019
Forecast type: TEMPORARY: The following changes expected for less than half the time period
Winds: from the NE (50 degrees) at 9 MPH (8 knots; 4.1 m/s)
Visibility: missing
Ceiling: unknown
Clouds: missing
Weather: no significant weather forecast for this period
Text: BECMG 1807/1809 03005KT 9999 FEW050 BKN300
Forecast period: 0700 to 1800 UTC 18 June 2019
Forecast type: BECOMING: Conditions expected to become as follows by 0900 UTC 18 June 2019
Winds: from the NNE (30 degrees) at 6 MPH (5 knots; 2.6 m/s)
Visibility: 6 or more miles 10+ km)
Ceiling: 30000 feet AGL
Clouds: few clouds at 5000 feet AGL
broken clouds at 30000 feet AGL
Weather: no significant weather forecast for this period